Аэропорт: Запорожье. Запорожье

ICAO: UKDE

METAR:
2019-11-21 01:00:00
UKDE 210100Z 07008G13MPS 030V090 9999 BKN019 01/M00 Q1034 R02R/210270 TEMPO 09011G16MPS
METAR:
2019-11-20 23:01:00
TAF UKDE 202301Z 2100/2109 07007G12MPS 6000 BKN010 TX02/2101Z TNM02/2105Z TEMPO 2100/2109 09011G16MPS